createdAt,value
2019-04-30T00:02:19.286Z,5.10
2019-04-30T00:05:25.644Z,5.03
2019-04-30T00:08:35.490Z,5.08
2019-04-30T00:11:41.256Z,4.72
2019-04-30T00:14:47.846Z,5.08
2019-04-30T00:17:58.508Z,4.88
2019-04-30T00:21:05.452Z,4.91
2019-04-30T00:24:13.272Z,4.83
2019-04-30T00:27:21.106Z,4.88
2019-04-30T00:30:28.113Z,4.87
2019-04-30T00:33:35.366Z,4.67
2019-04-30T00:36:42.265Z,4.90
2019-04-30T00:39:50.827Z,4.52
2019-04-30T00:43:00.218Z,4.55
2019-04-30T00:46:05.155Z,5.02
2019-04-30T00:49:16.183Z,5.06
2019-04-30T00:52:19.835Z,5.17
2019-04-30T00:55:26.306Z,5.22
2019-04-30T00:58:32.701Z,5.03
2019-04-30T01:02:06.053Z,5.01
2019-04-30T01:05:16.359Z,4.75
2019-04-30T01:08:25.345Z,4.71
2019-04-30T01:11:30.887Z,4.56
2019-04-30T01:14:38.610Z,5.00
2019-04-30T01:17:50.998Z,5.21
2019-04-30T01:20:54.790Z,5.04
2019-04-30T01:24:01.276Z,4.86
2019-04-30T01:27:10.463Z,4.82
2019-04-30T01:30:21.085Z,4.79
2019-04-30T01:33:28.386Z,4.54
2019-04-30T01:36:32.795Z,4.52
2019-04-30T01:39:39.252Z,4.61
2019-04-30T01:42:48.655Z,4.87
2019-04-30T01:45:53.782Z,4.99
2019-04-30T01:49:00.169Z,5.02
2019-04-30T01:52:06.594Z,4.94
2019-04-30T01:55:13.129Z,5.20
2019-04-30T01:58:44.565Z,5.05
2019-04-30T02:01:51.232Z,5.05
2019-04-30T02:04:59.141Z,5.36
2019-04-30T02:08:05.682Z,5.06
2019-04-30T02:11:12.047Z,5.16
2019-04-30T02:14:18.953Z,5.23
2019-04-30T02:17:25.347Z,5.24
2019-04-30T02:20:31.812Z,5.10
2019-04-30T02:23:39.224Z,5.10
2019-04-30T02:26:45.819Z,5.19
2019-04-30T02:29:52.192Z,5.36
2019-04-30T02:33:00.504Z,5.40
2019-04-30T02:36:25.652Z,5.45
2019-04-30T02:39:32.058Z,5.43
2019-04-30T02:42:39.868Z,5.20
2019-04-30T02:45:49.610Z,5.23
2019-04-30T02:48:55.794Z,4.97
2019-04-30T02:52:04.008Z,4.90
2019-04-30T02:55:14.474Z,4.92
2019-04-30T02:58:21.956Z,5.08
2019-04-30T03:01:30.543Z,5.30
2019-04-30T03:04:39.374Z,5.30
2019-04-30T03:07:44.641Z,5.21
2019-04-30T03:10:52.918Z,5.14
2019-04-30T03:13:59.595Z,5.25
2019-04-30T03:17:17.007Z,5.26
2019-04-30T03:20:42.144Z,5.05
2019-04-30T03:23:50.262Z,4.83
2019-04-30T03:26:59.228Z,4.89
2019-04-30T03:30:06.011Z,4.90
2019-04-30T03:33:13.555Z,5.02
2019-04-30T03:36:21.722Z,5.18
2019-04-30T03:39:29.742Z,5.05
2019-04-30T03:42:36.471Z,5.05
2019-04-30T03:45:42.817Z,4.93
2019-04-30T03:48:50.418Z,4.96
2019-04-30T03:51:59.596Z,4.93
2019-04-30T03:55:05.079Z,5.09
2019-04-30T03:58:11.491Z,5.14
2019-04-30T04:01:39.721Z,5.27
2019-04-30T04:05:01.081Z,5.14
2019-04-30T04:08:29.186Z,5.00
2019-04-30T04:11:39.694Z,4.91
2019-04-30T04:14:46.101Z,5.16
2019-04-30T04:17:52.588Z,5.27
2019-04-30T04:21:08.746Z,5.29
2019-04-30T04:24:10.643Z,5.37
2019-04-30T04:27:16.339Z,5.50
2019-04-30T04:30:22.748Z,5.62
2019-04-30T04:33:29.834Z,5.63
2019-04-30T04:36:36.254Z,5.61
2019-04-30T04:39:42.649Z,5.79
2019-04-30T04:42:49.497Z,5.92
2019-04-30T04:45:55.899Z,5.97
2019-04-30T04:49:02.652Z,6.07
2019-04-30T04:52:10.281Z,6.07
2019-04-30T04:55:16.910Z,6.20
2019-04-30T04:58:23.265Z,6.28
2019-04-30T05:01:29.746Z,6.39
2019-04-30T05:04:36.183Z,6.37
2019-04-30T05:07:42.570Z,6.43
2019-04-30T05:10:49.520Z,6.51
2019-04-30T05:13:56.073Z,6.54
2019-04-30T05:17:02.519Z,6.73
2019-04-30T05:20:10.008Z,6.69
2019-04-30T05:23:16.636Z,6.74
2019-04-30T05:26:22.991Z,7.10
2019-04-30T05:29:29.425Z,7.05
2019-04-30T05:32:35.909Z,7.32
2019-04-30T05:35:42.930Z,7.36
2019-04-30T05:38:49.292Z,7.51
2019-04-30T05:41:55.579Z,7.57
2019-04-30T05:45:03.772Z,7.66
2019-04-30T05:48:10.242Z,7.70
2019-04-30T05:51:19.287Z,7.86
2019-04-30T05:54:24.765Z,7.92
2019-04-30T05:57:31.355Z,8.04
2019-04-30T06:00:39.757Z,8.17
2019-04-30T06:03:45.691Z,8.31
2019-04-30T06:06:52.154Z,8.41
2019-04-30T06:10:11.169Z,8.43
2019-04-30T06:13:28.665Z,8.47
2019-04-30T06:16:35.353Z,8.75
2019-04-30T06:19:41.734Z,8.79
2019-04-30T06:22:49.683Z,8.90
2019-04-30T06:26:06.896Z,8.97
2019-04-30T06:29:05.305Z,9.10
2019-04-30T06:32:11.769Z,9.16
2019-04-30T06:35:19.362Z,9.23
2019-04-30T06:38:26.412Z,9.07
2019-04-30T06:41:32.774Z,9.26
2019-04-30T06:44:41.872Z,9.27
2019-04-30T06:47:48.893Z,9.36
2019-04-30T06:50:56.672Z,9.39
2019-04-30T06:54:03.017Z,9.49
2019-04-30T06:57:12.027Z,9.70
2019-04-30T07:00:19.572Z,9.72
2019-04-30T07:03:25.936Z,9.70
2019-04-30T07:06:36.990Z,9.75
2019-04-30T07:09:55.787Z,9.85
2019-04-30T07:13:03.701Z,10.06
2019-04-30T07:16:10.986Z,10.16
2019-04-30T07:19:29.965Z,10.42
2019-04-30T07:22:37.698Z,10.34
2019-04-30T07:25:35.182Z,10.56
2019-04-30T07:28:47.872Z,10.61
2019-04-30T07:31:51.652Z,10.86
2019-04-30T07:34:59.421Z,10.98
2019-04-30T07:38:06.116Z,11.08
2019-04-30T07:41:12.695Z,11.33
2019-04-30T07:44:31.000Z,11.33
2019-04-30T07:47:29.614Z,11.49
2019-04-30T07:50:35.756Z,11.70
2019-04-30T07:53:42.627Z,12.10
2019-04-30T07:56:50.724Z,12.43
2019-04-30T07:59:57.223Z,12.33
2019-04-30T08:03:11.749Z,12.42
2019-04-30T08:06:22.005Z,12.83
2019-04-30T08:09:35.661Z,12.64
2019-04-30T08:12:37.569Z,12.86
2019-04-30T08:15:44.257Z,12.79
2019-04-30T08:18:50.726Z,13.23
2019-04-30T08:21:58.592Z,13.23
2019-04-30T08:25:05.141Z,12.83
2019-04-30T08:28:11.518Z,13.39
2019-04-30T08:31:19.614Z,13.62
2019-04-30T08:34:25.938Z,13.60
2019-04-30T08:37:32.337Z,13.98
2019-04-30T08:40:43.116Z,14.39
2019-04-30T08:43:49.662Z,14.66
2019-04-30T08:46:58.864Z,14.20
2019-04-30T08:50:05.514Z,13.99
2019-04-30T08:53:12.165Z,14.51
2019-04-30T08:56:21.682Z,14.45
2019-04-30T08:59:26.444Z,13.98
2019-04-30T09:02:32.824Z,13.98
2019-04-30T09:06:05.446Z,14.25
2019-04-30T09:09:22.715Z,14.60
2019-04-30T09:12:29.986Z,14.60
2019-04-30T09:15:37.500Z,14.69
2019-04-30T09:18:44.020Z,14.76
2019-04-30T09:21:50.567Z,15.08
2019-04-30T09:24:56.934Z,14.82
2019-04-30T09:28:04.520Z,14.23
2019-04-30T09:31:10.935Z,14.18
2019-04-30T09:34:20.351Z,14.54
2019-04-30T09:37:26.718Z,14.71
2019-04-30T09:40:33.177Z,14.79
2019-04-30T09:43:40.518Z,14.55
2019-04-30T09:46:48.899Z,14.34
2019-04-30T09:49:55.371Z,14.57
2019-04-30T09:53:02.225Z,14.92
2019-04-30T09:56:09.655Z,15.25
2019-04-30T09:59:16.155Z,15.27
2019-04-30T10:02:22.620Z,14.87
2019-04-30T10:05:29.392Z,14.87
2019-04-30T10:08:47.479Z,15.30
2019-04-30T10:12:09.699Z,15.33
2019-04-30T10:15:29.016Z,15.21
2019-04-30T10:18:35.293Z,15.47
2019-04-30T10:21:41.837Z,15.57
2019-04-30T10:24:49.446Z,15.83
2019-04-30T10:27:56.069Z,15.48
2019-04-30T10:31:02.556Z,15.77
2019-04-30T10:34:09.655Z,15.70
2019-04-30T10:37:16.100Z,15.43
2019-04-30T10:40:22.489Z,15.64
2019-04-30T10:43:31.842Z,15.74
2019-04-30T10:46:37.316Z,15.76
2019-04-30T10:49:44.245Z,16.44
2019-04-30T10:52:50.600Z,17.37
2019-04-30T10:55:57.006Z,18.08
2019-04-30T10:59:03.624Z,17.89
2019-04-30T11:02:10.123Z,18.87
2019-04-30T11:05:16.549Z,19.24
2019-04-30T11:08:23.168Z,18.72
2019-04-30T11:11:30.598Z,18.59
2019-04-30T11:14:37.353Z,17.74
2019-04-30T11:17:43.902Z,17.08
2019-04-30T11:20:52.021Z,16.48
2019-04-30T11:23:59.519Z,16.71
2019-04-30T11:27:06.546Z,16.45
2019-04-30T11:30:21.395Z,16.73
2019-04-30T11:33:21.671Z,16.07
2019-04-30T11:36:29.218Z,15.60
2019-04-30T11:39:36.028Z,15.66
2019-04-30T11:42:42.509Z,15.86
2019-04-30T11:46:45.016Z,15.77
2019-04-30T11:49:52.415Z,15.32
2019-04-30T11:53:13.984Z,15.04
2019-04-30T11:56:07.060Z,14.23
2019-04-30T11:59:13.790Z,14.23
2019-04-30T12:02:34.646Z,13.47
2019-04-30T12:05:41.131Z,13.28
2019-04-30T12:09:09.406Z,13.05
2019-04-30T12:12:18.937Z,12.38
2019-04-30T12:15:25.399Z,12.86
2019-04-30T12:18:31.874Z,12.65
2019-04-30T12:21:38.319Z,12.33
2019-04-30T12:24:44.938Z,11.98
2019-04-30T12:27:51.291Z,11.82
2019-04-30T12:30:58.902Z,11.53
2019-04-30T12:34:05.510Z,11.50
2019-04-30T12:37:12.128Z,10.63
2019-04-30T12:40:26.660Z,10.80
2019-04-30T12:43:26.620Z,11.18
2019-04-30T12:46:33.166Z,10.70
2019-04-30T12:50:01.473Z,10.48
2019-04-30T12:53:11.917Z,10.24
2019-04-30T12:56:41.346Z,9.68
2019-04-30T12:59:47.810Z,9.49
2019-04-30T13:02:54.231Z,9.34
2019-04-30T13:06:01.861Z,9.66
2019-04-30T13:09:10.832Z,9.56
2019-04-30T13:12:18.157Z,9.28
2019-04-30T13:15:24.862Z,9.20
2019-04-30T13:18:31.215Z,9.13
2019-04-30T13:21:39.445Z,9.17
2019-04-30T13:24:46.104Z,9.34
2019-04-30T13:27:55.409Z,9.56
2019-04-30T13:31:01.832Z,9.60
2019-04-30T13:34:39.669Z,9.77
2019-04-30T13:37:53.236Z,9.50
2019-04-30T13:41:30.804Z,9.26
2019-04-30T13:44:39.400Z,8.80
2019-04-30T13:47:45.880Z,8.85
2019-04-30T13:50:52.288Z,8.81
2019-04-30T13:53:59.298Z,8.77
2019-04-30T13:57:05.611Z,8.95
2019-04-30T14:00:13.781Z,8.81
2019-04-30T14:03:29.137Z,8.95
2019-04-30T14:06:38.901Z,8.96
2019-04-30T14:09:45.257Z,9.12
2019-04-30T14:12:55.407Z,9.20
2019-04-30T14:16:01.800Z,9.16
2019-04-30T14:19:08.551Z,9.29
2019-04-30T14:22:14.968Z,9.42
2019-04-30T14:25:21.333Z,9.72
2019-04-30T14:28:29.191Z,9.96
2019-04-30T14:31:35.710Z,10.19
2019-04-30T14:34:42.076Z,10.34
2019-04-30T14:37:49.636Z,10.39
2019-04-30T14:40:56.735Z,10.36
2019-04-30T14:44:10.266Z,10.58
2019-04-30T14:47:26.776Z,10.85
2019-04-30T14:50:33.892Z,11.24
2019-04-30T14:53:59.190Z,11.66
2019-04-30T14:57:17.098Z,11.75
2019-04-30T15:00:38.793Z,11.97
2019-04-30T15:03:45.406Z,11.97
2019-04-30T15:06:51.831Z,12.16
2019-04-30T15:09:58.209Z,12.04
2019-04-30T15:13:06.488Z,12.11
2019-04-30T15:16:12.922Z,12.35
2019-04-30T15:19:19.442Z,12.24
2019-04-30T15:22:25.918Z,12.54
2019-04-30T15:25:34.225Z,12.47
2019-04-30T15:28:41.476Z,12.58
2019-04-30T15:31:49.076Z,12.80
2019-04-30T15:34:58.940Z,12.84
2019-04-30T15:38:05.047Z,12.87
2019-04-30T15:41:12.772Z,12.78
2019-04-30T15:44:19.218Z,12.79
2019-04-30T15:47:25.762Z,12.41
2019-04-30T15:50:31.998Z,12.41
2019-04-30T15:53:39.455Z,12.50
2019-04-30T15:56:45.871Z,12.47
2019-04-30T15:59:52.588Z,12.42
2019-04-30T16:03:05.566Z,12.69
2019-04-30T16:06:12.020Z,12.54
2019-04-30T16:09:25.629Z,12.53
2019-04-30T16:12:41.885Z,12.61
2019-04-30T16:15:49.180Z,12.79
2019-04-30T16:18:55.948Z,12.40
2019-04-30T16:22:02.307Z,12.40
2019-04-30T16:25:08.713Z,12.26
2019-04-30T16:28:15.053Z,12.41
2019-04-30T16:31:21.572Z,12.44
2019-04-30T16:34:30.149Z,12.30
2019-04-30T16:37:35.980Z,12.11
2019-04-30T16:40:42.357Z,11.96
2019-04-30T16:43:49.325Z,11.84
2019-04-30T16:46:55.703Z,11.89
2019-04-30T16:50:02.246Z,11.85
2019-04-30T16:53:08.630Z,11.88
2019-04-30T16:56:15.032Z,11.93
2019-04-30T16:59:26.585Z,11.93
2019-04-30T17:02:33.436Z,11.75
2019-04-30T17:05:43.989Z,11.70
2019-04-30T17:09:11.459Z,11.72
2019-04-30T17:12:26.076Z,11.58
2019-04-30T17:15:32.896Z,11.63
2019-04-30T17:18:41.747Z,11.57
2019-04-30T17:21:47.513Z,11.37
2019-04-30T17:24:53.857Z,11.47
2019-04-30T17:28:01.492Z,11.39
2019-04-30T17:31:09.735Z,11.29
2019-04-30T17:34:16.602Z,11.18
2019-04-30T17:37:22.966Z,11.25
2019-04-30T17:40:29.426Z,11.22
2019-04-30T17:43:35.908Z,11.12
2019-04-30T17:46:42.527Z,11.01
2019-04-30T17:49:50.893Z,10.96
2019-04-30T17:53:00.463Z,10.93
2019-04-30T17:56:05.591Z,10.92
2019-04-30T17:59:12.200Z,10.71
2019-04-30T18:02:20.228Z,10.63
2019-04-30T18:05:27.006Z,10.63
2019-04-30T18:08:33.365Z,10.60
2019-04-30T18:11:40.224Z,10.50
2019-04-30T18:14:46.589Z,10.51
2019-04-30T18:18:00.465Z,10.46
2019-04-30T18:21:29.496Z,10.43
2019-04-30T18:24:42.222Z,10.32
2019-04-30T18:27:53.788Z,10.19
2019-04-30T18:31:00.199Z,10.15
2019-04-30T18:34:06.772Z,10.09
2019-04-30T18:37:13.305Z,10.01
2019-04-30T18:40:19.755Z,9.97
2019-04-30T18:43:26.164Z,10.01
2019-04-30T18:46:32.802Z,9.94
2019-04-30T18:49:42.042Z,9.78
2019-04-30T18:52:50.719Z,9.68
2019-04-30T18:55:59.157Z,9.80
2019-04-30T18:59:08.680Z,9.69
2019-04-30T19:02:14.890Z,9.48
2019-04-30T19:05:26.557Z,9.30
2019-04-30T19:08:39.467Z,9.20
2019-04-30T19:11:52.085Z,9.18
2019-04-30T19:15:11.972Z,9.30
2019-04-30T19:18:30.425Z,9.05
2019-04-30T19:21:40.173Z,9.16
2019-04-30T19:24:55.688Z,9.06
2019-04-30T19:27:54.364Z,9.01
2019-04-30T19:31:01.071Z,8.91
2019-04-30T19:34:09.664Z,8.89
2019-04-30T19:37:15.595Z,8.63
2019-04-30T19:40:21.919Z,8.75
2019-04-30T19:43:28.635Z,8.76
2019-04-30T19:46:35.240Z,8.41
2019-04-30T19:49:41.577Z,8.51
2019-04-30T19:52:48.134Z,8.42
2019-04-30T19:55:54.500Z,8.28
2019-04-30T19:59:05.166Z,8.20
2019-04-30T20:02:10.707Z,8.24
2019-04-30T20:05:19.251Z,8.16
2019-04-30T20:08:25.235Z,7.98
2019-04-30T20:11:33.083Z,8.00
2019-04-30T20:14:39.381Z,7.74
2019-04-30T20:17:45.943Z,7.83
2019-04-30T20:20:54.174Z,7.79
2019-04-30T20:24:00.517Z,7.63
2019-04-30T20:27:09.553Z,7.65
2019-04-30T20:30:15.948Z,7.51
2019-04-30T20:33:22.366Z,7.32
2019-04-30T20:36:28.898Z,7.24
2019-04-30T20:39:42.598Z,7.34
2019-04-30T20:42:49.023Z,7.42
2019-04-30T20:45:55.455Z,7.27
2019-04-30T20:49:02.808Z,7.16
2019-04-30T20:52:09.191Z,7.06
2019-04-30T20:55:15.585Z,7.02
2019-04-30T20:58:22.021Z,7.31
2019-04-30T21:01:29.384Z,7.33
2019-04-30T21:04:36.016Z,7.09
2019-04-30T21:07:42.426Z,7.11
2019-04-30T21:10:49.435Z,7.05
2019-04-30T21:13:56.298Z,7.16
2019-04-30T21:17:02.616Z,6.88
2019-04-30T21:20:09.766Z,6.88
2019-04-30T21:23:19.289Z,6.90
2019-04-30T21:26:25.495Z,6.79
2019-04-30T21:29:32.031Z,6.96
2019-04-30T21:33:00.330Z,6.88
2019-04-30T21:36:25.731Z,6.84
2019-04-30T21:39:32.195Z,6.87
2019-04-30T21:42:38.536Z,6.78
2019-04-30T21:45:44.886Z,6.66
2019-04-30T21:48:51.232Z,6.64
2019-04-30T21:51:57.660Z,6.61
2019-04-30T21:55:04.335Z,6.67
2019-04-30T21:58:10.873Z,6.57
2019-04-30T22:01:24.696Z,6.62
2019-04-30T22:04:32.870Z,6.48
2019-04-30T22:07:39.206Z,6.71
2019-04-30T22:10:45.625Z,6.76
2019-04-30T22:13:51.885Z,6.49
2019-04-30T22:16:59.469Z,6.41
2019-04-30T22:20:07.834Z,6.36
2019-04-30T22:23:14.322Z,6.32
2019-04-30T22:26:20.750Z,6.18
2019-04-30T22:29:38.463Z,5.98
2019-04-30T22:32:35.208Z,6.25
2019-04-30T22:36:08.720Z,6.21
2019-04-30T22:39:39.550Z,6.14
2019-04-30T22:42:46.016Z,6.26
2019-04-30T22:45:59.718Z,6.09
2019-04-30T22:49:06.134Z,5.99
2019-04-30T22:52:12.395Z,6.06
2019-04-30T22:55:18.867Z,6.10
2019-04-30T22:58:25.227Z,5.83
2019-04-30T23:01:44.191Z,5.88
2019-04-30T23:04:50.583Z,5.88
2019-04-30T23:07:57.043Z,5.86
2019-04-30T23:11:03.461Z,5.93
2019-04-30T23:14:09.942Z,6.01
2019-04-30T23:17:16.914Z,5.92
2019-04-30T23:20:23.378Z,5.82
2019-04-30T23:23:29.955Z,5.97
2019-04-30T23:26:36.509Z,5.88
2019-04-30T23:29:42.879Z,5.86
2019-04-30T23:32:49.297Z,5.84
2019-04-30T23:35:55.712Z,5.55
2019-04-30T23:39:02.799Z,5.75
2019-04-30T23:42:09.915Z,5.65
2019-04-30T23:45:16.326Z,5.55
2019-04-30T23:48:22.764Z,5.53
2019-04-30T23:51:29.163Z,5.75
2019-04-30T23:54:35.515Z,5.64
2019-04-30T23:57:41.855Z,5.53
